Time,TemperatureF,DewpointF,PressureIn,WindDirection,WindDirectionDegrees,WindSpeedMPH,WindSpeedGustMPH,Humidity,HourlyPrecipIn,Conditions,Clouds,dailyrainin,SoftwareType,DateUTC
2013-10-12 00:00:00,42.3,38.4,30.35,NE,54,3.0,6.0,86,0.00,CLR,,0.00,WeatherDisplay:10.37,2013-10-11 23:00:00,
2013-10-12 00:10:00,42.3,38.4,30.34,ENE,71,3.0,6.0,86,0.00,CLR,,0.00,WeatherDisplay:10.37,2013-10-11 23:10:00,
2013-10-12 00:20:00,42.3,38.1,30.34,NE,54,3.0,6.0,85,0.00,CLR,,0.00,WeatherDisplay:10.37,2013-10-11 23:20:00,
2013-10-12 00:30:00,42.3,37.8,30.34,NE,54,2.0,6.0,84,0.00,CLR,,0.00,WeatherDisplay:10.37,2013-10-11 23:30:00,
2013-10-12 00:40:00,42.1,37.6,30.34,ENE,69,1.0,5.0,84,0.00,CLR,,0.00,WeatherDisplay:10.37,2013-10-11 23:40:00,
2013-10-12 00:50:00,41.9,37.1,30.34,ENE,57,1.0,2.0,83,0.00,CLR,,0.00,WeatherDisplay:10.37,2013-10-11 23:50:00,
2013-10-12 01:00:00,41.7,37.2,30.34,ENE,71,1.0,2.0,84,0.00,CLR,,0.00,WeatherDisplay:10.37,2013-10-12 00:00:00,
2013-10-12 01:10:00,41.9,37.4,30.34,NE,36,2.0,3.0,84,0.00,CLR,,0.00,WeatherDisplay:10.37,2013-10-12 00:10:00,
2013-10-12 01:20:00,41.9,37.1,30.34,NE,47,2.0,5.0,83,0.00,CLR,,0.00,WeatherDisplay:10.37,2013-10-12 00:20:00,
2013-10-12 01:30:00,41.9,37.1,30.34,NE,48,2.0,6.0,83,0.00,CLR,,0.00,WeatherDisplay:10.37,2013-10-12 00:30:00,
2013-10-12 01:40:00,41.7,36.9,30.34,ENE,68,1.0,4.0,83,0.00,CLR,,0.00,WeatherDisplay:10.37,2013-10-12 00:40:00,
2013-10-12 01:50:00,41.7,37.2,30.33,ENE,66,2.0,5.0,84,0.00,CLR,,0.00,WeatherDisplay:10.37,2013-10-12 00:50:00,
2013-10-12 02:00:00,41.5,36.8,30.33,ENE,75,1.0,5.0,83,0.00,CLR,,0.00,WeatherDisplay:10.37,2013-10-12 01:00:00,
2013-10-12 02:10:00,41.4,36.6,30.33,NE,54,2.0,4.0,83,0.00,CLR,,0.00,WeatherDisplay:10.37,2013-10-12 01:10:00,
2013-10-12 02:20:00,41.3,36.5,30.33,ENE,61,3.0,8.0,83,0.00,CLR,,0.00,WeatherDisplay:10.37,2013-10-12 01:20:00,
2013-10-12 02:30:00,41.2,36.4,30.33,ENE,69,3.0,6.0,83,0.00,CLR,,0.00,WeatherDisplay:10.37,2013-10-12 01:30:00,
2013-10-12 02:40:00,41.2,36.1,30.32,NE,44,5.0,6.0,82,0.00,CLR,,0.00,WeatherDisplay:10.37,2013-10-12 01:40:00,
2013-10-12 02:50:00,41.2,36.1,30.32,NE,45,1.0,5.0,82,0.00,CLR,,0.00,WeatherDisplay:10.37,2013-10-12 01:50:00,
2013-10-12 03:00:00,41.2,36.1,30.32,NE,56,0.0,4.0,82,0.00,CLR,,0.00,WeatherDisplay:10.37,2013-10-12 02:00:00,
2013-10-12 03:10:00,41.2,36.1,30.32,ENE,62,2.0,4.0,82,0.00,CLR,,0.00,WeatherDisplay:10.37,2013-10-12 02:10:00,
2013-10-12 03:20:00,41.2,36.1,30.32,ENE,62,2.0,6.0,82,0.00,CLR,,0.00,WeatherDisplay:10.37,2013-10-12 02:20:00,
2013-10-12 03:30:00,41.3,36.5,30.32,NE,47,3.0,5.0,83,0.00,CLR,,0.00,WeatherDisplay:10.37,2013-10-12 02:30:00,
2013-10-12 03:40:00,41.3,36.6,30.31,NE,44,3.0,8.0,83,0.00,CLR,,0.00,WeatherDisplay:10.37,2013-10-12 02:40:00,
2013-10-12 03:50:00,41.2,36.4,30.31,NE,46,3.0,7.0,83,0.00,CLR,,0.00,WeatherDisplay:10.37,2013-10-12 02:50:00,
2013-10-12 04:00:00,41.4,36.6,30.31,NE,46,6.0,9.0,83,0.00,CLR,,0.00,WeatherDisplay:10.37,2013-10-12 03:00:00,
2013-10-12 04:10:00,41.4,36.6,30.31,NE,51,7.0,9.0,83,0.00,CLR,,0.00,WeatherDisplay:10.37,2013-10-12 03:10:00,
2013-10-12 04:20:00,41.4,36.6,30.31,NE,53,3.0,7.0,83,0.00,CLR,,0.00,WeatherDisplay:10.37,2013-10-12 03:20:00,
2013-10-12 04:30:00,41.2,36.4,30.31,NE,50,6.0,7.0,83,0.00,CLR,,0.00,WeatherDisplay:10.37,2013-10-12 03:30:00,
2013-10-12 04:40:00,41.2,36.4,30.30,NE,47,6.0,8.0,83,0.00,CLR,,0.00,WeatherDisplay:10.37,2013-10-12 03:40:00,
2013-10-12 04:50:00,41.3,36.5,30.30,ENE,57,5.0,8.0,83,0.00,CLR,,0.00,WeatherDisplay:10.37,2013-10-12 03:50:00,
2013-10-12 05:00:00,41.2,36.4,30.30,NE,56,3.0,6.0,83,0.00,CLR,,0.00,WeatherDisplay:10.37,2013-10-12 04:00:00,
2013-10-12 05:10:00,40.6,35.8,30.30,NE,43,5.0,9.0,83,0.00,CLR,,0.00,WeatherDisplay:10.37,2013-10-12 04:10:00,
2013-10-12 05:20:00,40.3,35.5,30.30,NE,50,6.0,9.0,83,0.00,CLR,,0.00,WeatherDisplay:10.37,2013-10-12 04:20:00,
2013-10-12 05:30:00,39.7,35.0,30.30,NE,45,5.0,7.0,83,0.00,CLR,,0.00,WeatherDisplay:10.37,2013-10-12 04:30:00,
2013-10-12 05:40:00,39.4,34.9,30.30,NE,50,3.0,9.0,84,0.00,CLR,,0.00,WeatherDisplay:10.37,2013-10-12 04:40:00,
2013-10-12 05:50:00,38.8,34.4,30.30,ENE,59,5.0,7.0,84,0.00,CLR,,0.00,WeatherDisplay:10.37,2013-10-12 04:50:00,
2013-10-12 06:00:00,39.2,35.1,30.30,NE,54,5.0,8.0,85,0.00,CLR,,0.00,WeatherDisplay:10.37,2013-10-12 05:00:00,
2013-10-12 06:10:00,38.9,34.7,30.30,ENE,74,6.0,8.0,85,0.00,CLR,,0.00,WeatherDisplay:10.37,2013-10-12 05:10:00,
2013-10-12 06:20:00,38.9,35.0,30.30,East,86,2.0,11.0,86,0.00,CLR,,0.00,WeatherDisplay:10.37,2013-10-12 05:20:00,
2013-10-12 06:30:00,38.3,34.2,30.30,ENE,64,5.0,5.0,85,0.00,CLR,,0.00,WeatherDisplay:10.37,2013-10-12 05:30:00,
2013-10-12 06:40:00,37.7,33.6,30.30,ENE,75,3.0,5.0,85,0.00,CLR,,0.00,WeatherDisplay:10.37,2013-10-12 05:40:00,
2013-10-12 06:50:00,37.9,34.1,30.30,East,82,5.0,7.0,86,0.00,CLR,,0.00,WeatherDisplay:10.37,2013-10-12 05:50:00,
2013-10-12 07:00:00,37.9,34.1,30.30,ENE,59,3.0,6.0,86,0.00,CLR,,0.00,WeatherDisplay:10.37,2013-10-12 06:00:00,
2013-10-12 07:10:00,38.1,34.6,30.29,ENE,58,2.0,7.0,87,0.00,CLR,,0.00,WeatherDisplay:10.37,2013-10-12 06:10:00,
2013-10-12 07:20:00,38.8,35.3,30.30,ENE,60,2.0,8.0,87,0.00,CLR,,0.00,WeatherDisplay:10.37,2013-10-12 06:20:00,
2013-10-12 07:30:00,39.5,36.3,30.30,ENE,63,5.0,8.0,88,0.00,CLR,,0.00,WeatherDisplay:10.37,2013-10-12 06:30:00,
2013-10-12 07:40:00,39.9,36.7,30.30,ENE,64,6.0,6.0,88,0.00,CLR,,0.00,WeatherDisplay:10.37,2013-10-12 06:40:00,
2013-10-12 07:50:00,40.3,37.1,30.30,ENE,65,5.0,8.0,88,0.00,CLR,,0.00,WeatherDisplay:10.37,2013-10-12 06:50:00,
2013-10-12 08:00:00,40.6,37.4,30.30,ENE,59,6.0,7.0,88,0.00,CLR,,0.00,WeatherDisplay:10.37,2013-10-12 07:00:00,
2013-10-12 08:10:00,41.1,37.8,30.30,ENE,72,3.0,7.0,88,0.00,CLR,,0.00,WeatherDisplay:10.37,2013-10-12 07:10:00,
2013-10-12 08:20:00,41.2,37.9,30.30,East,82,3.0,6.0,88,0.00,CLR,,0.00,WeatherDisplay:10.37,2013-10-12 07:20:00,
2013-10-12 08:30:00,41.0,37.7,30.30,ENE,71,0.0,3.0,88,0.00,CLR,,0.00,WeatherDisplay:10.37,2013-10-12 07:30:00,
2013-10-12 08:40:00,41.5,38.3,30.30,East,83,2.0,5.0,88,0.00,CLR,,0.00,WeatherDisplay:10.37,2013-10-12 07:40:00,
2013-10-12 08:50:00,42.0,38.4,30.30,East,90,3.0,6.0,87,0.00,CLR,,0.00,WeatherDisplay:10.37,2013-10-12 07:50:00,
2013-10-12 09:00:00,42.5,38.6,30.30,ESE,103,2.0,5.0,86,0.00,CLR,,0.00,WeatherDisplay:10.37,2013-10-12 08:00:00,
2013-10-12 09:10:00,43.2,39.3,30.30,East,98,1.0,5.0,86,0.00,CLR,,0.00,WeatherDisplay:10.37,2013-10-12 08:10:00,
2013-10-12 09:20:00,43.5,39.3,30.30,East,82,5.0,8.0,85,0.00,CLR,,0.00,WeatherDisplay:10.37,2013-10-12 08:20:00,
2013-10-12 09:30:00,43.9,39.4,30.29,East,88,5.0,9.0,84,0.00,CLR,,0.00,WeatherDisplay:10.37,2013-10-12 08:30:00,
2013-10-12 09:40:00,44.3,39.5,30.29,ENE,77,3.0,9.0,83,0.00,CLR,,0.00,WeatherDisplay:10.37,2013-10-12 08:40:00,
2013-10-12 09:50:00,45.5,40.3,30.29,East,93,5.0,8.0,82,0.00,CLR,,0.00,WeatherDisplay:10.37,2013-10-12 08:50:00,
2013-10-12 10:00:00,46.8,41.3,30.29,East,80,6.0,11.0,81,0.00,CLR,,0.00,WeatherDisplay:10.37,2013-10-12 09:00:00,
2013-10-12 10:10:00,47.1,40.3,30.29,ENE,72,6.0,11.0,77,0.00,CLR,,0.00,WeatherDisplay:10.37,2013-10-12 09:10:00,
2013-10-12 10:20:00,48.0,40.8,30.29,ENE,67,8.0,11.0,76,0.00,CLR,,0.00,WeatherDisplay:10.37,2013-10-12 09:20:00,
2013-10-12 10:30:00,48.2,40.3,30.29,ENE,67,9.0,12.0,74,0.00,CLR,,0.00,WeatherDisplay:10.37,2013-10-12 09:30:00,
2013-10-12 10:40:00,47.7,39.8,30.29,ENE,66,9.0,12.0,74,0.00,CLR,,0.00,WeatherDisplay:10.37,2013-10-12 09:40:00,
2013-10-12 10:50:00,48.0,40.1,30.28,NE,55,5.0,12.0,74,0.00,CLR,,0.00,WeatherDisplay:10.37,2013-10-12 09:50:00,
2013-10-12 11:00:00,48.8,41.3,30.28,ENE,66,3.0,14.0,75,0.00,CLR,,0.00,WeatherDisplay:10.37,2013-10-12 10:00:00,
2013-10-12 11:10:00,49.6,41.7,30.28,ENE,72,7.0,10.0,74,0.00,CLR,,0.00,WeatherDisplay:10.37,2013-10-12 10:10:00,
2013-10-12 11:20:00,50.2,42.3,30.28,ENE,66,9.0,14.0,74,0.00,CLR,,0.00,WeatherDisplay:10.37,2013-10-12 10:20:00,
2013-10-12 11:30:00,50.7,42.7,30.28,ENE,71,9.0,12.0,74,0.00,CLR,,0.00,WeatherDisplay:10.37,2013-10-12 10:30:00,
2013-10-12 11:40:00,50.7,42.0,30.28,ENE,67,10.0,18.0,72,0.00,CLR,,0.00,WeatherDisplay:10.37,2013-10-12 10:40:00,
2013-10-12 11:50:00,51.3,42.5,30.27,ENE,60,14.0,18.0,72,0.00,CLR,,0.00,WeatherDisplay:10.37,2013-10-12 10:50:00,
2013-10-12 12:00:00,51.2,42.1,30.27,ENE,59,12.0,14.0,71,0.00,CLR,,0.00,WeatherDisplay:10.37,2013-10-12 11:00:00,
2013-10-12 12:10:00,52.2,43.4,30.27,ENE,63,12.0,16.0,72,0.00,CLR,,0.00,WeatherDisplay:10.37,2013-10-12 11:10:00,
2013-10-12 12:20:00,51.1,41.3,30.27,ENE,60,10.0,16.0,69,0.00,CLR,,0.00,WeatherDisplay:10.37,2013-10-12 11:20:00,
2013-10-12 12:30:00,52.4,43.6,30.27,ENE,77,10.0,16.0,72,0.00,CLR,,0.00,WeatherDisplay:10.37,2013-10-12 11:30:00,
2013-10-12 12:40:00,52.7,42.1,30.27,ENE,70,10.0,18.0,67,0.00,CLR,,0.00,WeatherDisplay:10.37,2013-10-12 11:40:00,
2013-10-12 12:50:00,51.6,41.4,30.26,ENE,74,14.0,19.0,68,0.00,CLR,,0.00,WeatherDisplay:10.37,2013-10-12 11:50:00,
2013-10-12 13:00:00,52.3,42.4,30.26,ENE,75,13.0,20.0,69,0.00,CLR,,0.00,WeatherDisplay:10.37,2013-10-12 12:00:00,
2013-10-12 13:10:00,53.6,42.5,30.26,ENE,63,13.0,20.0,66,0.00,CLR,,0.00,WeatherDisplay:10.37,2013-10-12 12:10:00,
2013-10-12 13:20:00,53.0,40.8,30.26,ENE,67,12.0,18.0,63,0.00,CLR,,0.00,WeatherDisplay:10.37,2013-10-12 12:20:00,
2013-10-12 13:30:00,52.2,41.6,30.26,ENE,63,13.0,20.0,67,0.00,CLR,,0.00,WeatherDisplay:10.37,2013-10-12 12:30:00,
2013-10-12 13:40:00,54.3,42.4,30.25,ENE,71,13.0,20.0,64,0.00,CLR,,0.00,WeatherDisplay:10.37,2013-10-12 12:40:00,
2013-10-12 13:50:00,52.7,40.0,30.25,ENE,60,16.0,20.0,62,0.00,CLR,,0.00,WeatherDisplay:10.37,2013-10-12 12:50:00,
2013-10-12 14:00:00,51.9,40.1,30.25,ENE,63,14.0,21.0,64,0.00,CLR,,0.00,WeatherDisplay:10.37,2013-10-12 13:00:00,
2013-10-12 14:10:00,51.8,40.4,30.25,ENE,70,13.0,20.0,65,0.00,CLR,,0.00,WeatherDisplay:10.37,2013-10-12 13:10:00,
2013-10-12 14:20:00,53.2,41.3,30.24,ENE,70,14.0,20.0,64,0.00,CLR,,0.00,WeatherDisplay:10.37,2013-10-12 13:20:00,
2013-10-12 14:30:00,52.8,40.6,30.24,ENE,70,15.0,20.0,63,0.00,CLR,,0.00,WeatherDisplay:10.37,2013-10-12 13:30:00,
2013-10-12 14:40:00,52.7,41.3,30.23,ENE,73,9.0,18.0,65,0.00,CLR,,0.00,WeatherDisplay:10.37,2013-10-12 13:40:00,
2013-10-12 14:50:00,53.2,41.3,30.24,ENE,70,10.0,17.0,64,0.00,CLR,,0.00,WeatherDisplay:10.37,2013-10-12 13:50:00,
2013-10-12 15:00:00,55.7,42.9,30.23,ENE,73,15.0,17.0,62,0.00,CLR,,0.00,WeatherDisplay:10.37,2013-10-12 14:00:00,
2013-10-12 15:10:00,54.3,41.1,30.23,ENE,63,14.0,15.0,61,0.00,CLR,,0.00,WeatherDisplay:10.37,2013-10-12 14:10:00,
2013-10-12 15:20:00,55.2,41.5,30.23,ENE,71,16.0,21.0,60,0.00,CLR,,0.00,WeatherDisplay:10.37,2013-10-12 14:20:00,
2013-10-12 15:30:00,55.2,41.6,30.22,East,84,9.0,15.0,60,0.00,CLR,,0.00,WeatherDisplay:10.37,2013-10-12 14:30:00,
2013-10-12 15:40:00,53.7,40.6,30.22,ENE,66,10.0,17.0,61,0.00,CLR,,0.00,WeatherDisplay:10.37,2013-10-12 14:40:00,
2013-10-12 15:50:00,52.7,40.5,30.22,ENE,65,9.0,15.0,63,0.00,CLR,,0.00,WeatherDisplay:10.37,2013-10-12 14:50:00,
2013-10-12 16:00:00,52.0,41.0,30.22,ENE,62,7.0,12.0,66,0.00,CLR,,0.00,WeatherDisplay:10.37,2013-10-12 15:00:00,
2013-10-12 16:10:00,51.4,40.8,30.22,ENE,59,9.0,14.0,67,0.00,CLR,,0.00,WeatherDisplay:10.37,2013-10-12 15:10:00,
2013-10-12 16:20:00,51.2,41.0,30.22,NE,54,8.0,16.0,68,0.00,CLR,,0.00,WeatherDisplay:10.37,2013-10-12 15:20:00,
2013-10-12 16:30:00,50.9,41.1,30.21,ENE,58,8.0,13.0,69,0.00,CLR,,0.00,WeatherDisplay:10.37,2013-10-12 15:30:00,
2013-10-12 16:40:00,50.7,41.7,30.21,ENE,61,14.0,17.0,71,0.00,CLR,,0.00,WeatherDisplay:10.37,2013-10-12 15:40:00,
2013-10-12 16:50:00,50.9,42.5,30.20,ENE,58,12.0,16.0,73,0.00,CLR,,0.00,WeatherDisplay:10.37,2013-10-12 15:50:00,
2013-10-12 17:00:00,50.7,42.7,30.20,ENE,63,10.0,15.0,74,0.00,CLR,,0.00,WeatherDisplay:10.37,2013-10-12 16:00:00,
2013-10-12 17:10:00,50.5,42.9,30.20,ENE,63,12.0,14.0,75,0.00,CLR,,0.00,WeatherDisplay:10.37,2013-10-12 16:10:00,
2013-10-12 17:20:00,50.4,43.1,30.20,ENE,66,8.0,14.0,76,0.00,CLR,,0.00,WeatherDisplay:10.37,2013-10-12 16:20:00,
2013-10-12 17:30:00,50.4,43.1,30.20,ENE,57,7.0,16.0,76,0.00,CLR,,0.00,WeatherDisplay:10.37,2013-10-12 16:30:00,
2013-10-12 17:40:00,50.1,42.8,30.20,ENE,73,5.0,9.0,76,0.00,CLR,,0.00,WeatherDisplay:10.37,2013-10-12 16:40:00,
2013-10-12 17:50:00,49.8,42.8,30.20,ENE,66,12.0,15.0,77,0.00,CLR,,0.00,WeatherDisplay:10.37,2013-10-12 16:50:00,
2013-10-12 18:00:00,49.6,42.7,30.20,ENE,66,8.0,13.0,77,0.00,CLR,,0.00,WeatherDisplay:10.37,2013-10-12 17:00:00,
2013-10-12 18:10:00,49.6,43.1,30.20,ENE,62,8.0,15.0,78,0.00,CLR,,0.00,WeatherDisplay:10.37,2013-10-12 17:10:00,
2013-10-12 18:20:00,49.5,42.9,30.20,ENE,63,9.0,17.0,78,0.00,CLR,,0.00,WeatherDisplay:10.37,2013-10-12 17:20:00,
2013-10-12 18:30:00,49.5,43.2,30.19,ENE,62,12.0,16.0,79,0.00,CLR,,0.00,WeatherDisplay:10.37,2013-10-12 17:30:00,
2013-10-12 18:40:00,49.5,43.2,30.20,ENE,65,9.0,14.0,79,0.00,CLR,,0.00,WeatherDisplay:10.37,2013-10-12 17:40:00,
2013-10-12 18:50:00,49.5,43.5,30.20,ENE,65,10.0,16.0,80,0.00,CLR,,0.00,WeatherDisplay:10.37,2013-10-12 17:50:00,
2013-10-12 19:00:00,49.2,43.3,30.19,ENE,66,12.0,14.0,80,0.00,CLR,,0.00,WeatherDisplay:10.37,2013-10-12 18:00:00,
2013-10-12 19:10:00,49.1,43.5,30.19,ENE,73,10.0,16.0,81,0.00,CLR,,0.00,WeatherDisplay:10.37,2013-10-12 18:10:00,
2013-10-12 19:20:00,49.1,43.5,30.19,ENE,71,9.0,13.0,81,0.00,CLR,,0.00,WeatherDisplay:10.37,2013-10-12 18:20:00,
2013-10-12 19:30:00,48.7,43.5,30.19,ENE,68,8.0,12.0,82,0.00,CLR,,0.00,WeatherDisplay:10.37,2013-10-12 18:30:00,
2013-10-12 19:40:00,48.7,43.8,30.19,ENE,66,10.0,14.0,83,0.00,CLR,,0.00,WeatherDisplay:10.37,2013-10-12 18:40:00,
2013-10-12 19:50:00,48.7,44.1,30.18,ENE,74,12.0,16.0,84,0.00,CLR,,0.00,WeatherDisplay:10.37,2013-10-12 18:50:00,
2013-10-12 20:00:00,48.9,44.0,30.19,ENE,64,12.0,16.0,83,0.00,CLR,,0.00,WeatherDisplay:10.37,2013-10-12 19:00:00,
2013-10-12 20:10:00,49.0,43.7,30.18,ENE,76,12.0,16.0,82,0.00,CLR,,0.00,WeatherDisplay:10.37,2013-10-12 19:10:00,
2013-10-12 20:20:00,48.7,43.5,30.18,ENE,70,10.0,14.0,82,0.00,CLR,,0.00,WeatherDisplay:10.37,2013-10-12 19:20:00,
2013-10-12 20:30:00,48.7,43.5,30.18,ENE,67,10.0,14.0,82,0.00,CLR,,0.00,WeatherDisplay:10.37,2013-10-12 19:30:00,
2013-10-12 20:40:00,48.4,43.2,30.18,ENE,69,10.0,16.0,82,0.00,CLR,,0.00,WeatherDisplay:10.37,2013-10-12 19:40:00,
2013-10-12 20:50:00,48.2,43.0,30.17,ENE,76,9.0,15.0,82,0.00,CLR,,0.00,WeatherDisplay:10.37,2013-10-12 19:50:00,
2013-10-12 21:00:00,47.7,42.4,30.17,ENE,59,10.0,12.0,82,0.00,CLR,,0.00,WeatherDisplay:10.37,2013-10-12 20:00:00,
2013-10-12 21:10:00,47.4,42.1,30.17,ENE,65,9.0,14.0,82,0.00,CLR,,0.00,WeatherDisplay:10.37,2013-10-12 20:10:00,
2013-10-12 21:20:00,47.6,42.4,30.18,ENE,69,7.0,11.0,82,0.00,CLR,,0.00,WeatherDisplay:10.37,2013-10-12 20:20:00,
2013-10-12 21:30:00,47.3,42.1,30.17,ENE,73,6.0,15.0,82,0.00,CLR,,0.00,WeatherDisplay:10.37,2013-10-12 20:30:00,
2013-10-12 21:40:00,46.9,42.0,30.17,ENE,71,3.0,10.0,83,0.00,CLR,,0.00,WeatherDisplay:10.37,2013-10-12 20:40:00,
2013-10-12 21:50:00,46.6,42.0,30.17,ENE,64,6.0,12.0,84,0.00,CLR,,0.00,WeatherDisplay:10.37,2013-10-12 20:50:00,
2013-10-12 22:00:00,46.8,42.2,30.17,ENE,61,3.0,12.0,84,0.00,CLR,,0.00,WeatherDisplay:10.37,2013-10-12 21:00:00,
2013-10-12 22:10:00,46.7,42.4,30.17,ENE,61,7.0,12.0,85,0.00,CLR,,0.00,WeatherDisplay:10.37,2013-10-12 21:10:00,
2013-10-12 22:20:00,46.3,42.0,30.17,ENE,66,6.0,13.0,85,0.00,CLR,,0.00,WeatherDisplay:10.37,2013-10-12 21:20:00,
2013-10-12 22:30:00,46.0,41.8,30.17,ENE,68,8.0,13.0,85,0.00,CLR,,0.00,WeatherDisplay:10.37,2013-10-12 21:30:00,
2013-10-12 22:40:00,45.9,41.6,30.17,ENE,59,10.0,13.0,85,0.00,CLR,,0.00,WeatherDisplay:10.37,2013-10-12 21:40:00,
2013-10-12 22:50:00,46.0,42.1,30.16,ENE,64,8.0,12.0,86,0.00,CLR,,0.00,WeatherDisplay:10.37,2013-10-12 21:50:00,
2013-10-12 23:00:00,45.7,41.7,30.16,ENE,60,9.0,13.0,86,0.00,CLR,,0.00,WeatherDisplay:10.37,2013-10-12 22:00:00,
2013-10-12 23:10:00,45.3,41.4,30.16,ENE,70,8.0,13.0,86,0.00,CLR,,0.00,WeatherDisplay:10.37,2013-10-12 22:10:00,
2013-10-12 23:20:00,45.2,41.2,30.16,ENE,64,10.0,13.0,86,0.00,CLR,,0.00,WeatherDisplay:10.37,2013-10-12 22:20:00,
2013-10-12 23:30:00,45.2,41.2,30.16,NE,56,6.0,10.0,86,0.00,CLR,,0.00,WeatherDisplay:10.37,2013-10-12 22:30:00,
2013-10-12 23:50:00,44.8,40.6,30.15,ENE,67,7.0,12.0,85,0.00,CLR,,0.00,WeatherDisplay:10.37,2013-10-12 22:50:00,